الصفحة الرئيسية
METAR-TAF:

METAR-TAF

مطار :

مطار الصويرة موكادور

الصويرة, المغرب

دائرة عرض: 31-31N, خط طول: 009-47W, ارتفاع: 15 متر

مراقبة الطقس الحالي

تاريخ ووقت الإصدار 1ساعة و 7 دقيقة قبل الساعة 13:00UTC
ريح 6 عقدة من الغرب, الاتجاه يتراوح بين الجنوب الغربي و الغرب/الشمال الغربي
درجة الحرارة 16°درجة مئوية
الرطوبة 82%
ضغط 1015 hPa
الرؤية: 7000 متر
غيوم متفرقة على ارتفاع 1300 قدم, مزن ركامية عمودية.
غيوم مفككة على ارتفاع 1600 قدم

METAR: GMMI 061300Z 26006KT 220V300 7000 SCT013TCU BKN016 16/13 Q1015 NOSIG

زمن: 15:07 (14:07 UTC)

توقعات

تاريخ ووقت الإصدار 3ساعات و 7 دقيقة قبل الساعة 11:00UTC
التوقعات صالحة من06 الساعة 12 UTC إلى 07 الساعة 18 UTC
ريح 6 عقدة من الجنوب الغربي
الرؤية: 7000 متر
غيوم متفرقة على ارتفاع 1300 قدم, مزن ركامية عمودية.
غيوم مفككة على ارتفاع 1600 قدم
نظرية الاحتمالات 30% :
مؤقت
من 06 الساعة 12 UTC إلى 06 الساعة 24 UTC
الرؤية: 5000 متر
غيوم مفككة على ارتفاع 1000 قدم
مطر خفيف

TAF: GMMI 061100Z 0612/0718 22006KT 7000 SCT013TCU BKN016 PROB30 TEMPO 0612/0624 5000 -RA BKN010

أرصاد الطقس والتوقعات من أكثر من 4000 مطار (تقارير الطقس للمطار METAR والتنبؤ بالطقس بالمطارTAF).

المحطات المتاحة هي النقط الصفراء والحمراء على الخريطة.

حرك المؤشر فوق النقطة لمعرفة اسم المحطة.

ثم انقر لمعرفة أرصاد وتوقعات الطقس.

لتغيير الخارطة: اضغط على الأزرار الخضراء مع رمز الصليب الأسود للتكبير. على الزر الأخضر مع شرطة للتصغير، أو على الأسهم الخضراء للخرائط المجاورة.


METAR-TAF: